sensor_id;sensor_type;location;lat;lon;timestamp;pressure;altitude;pressure_sealevel;temperature;humidity
57656;BME280;43482;53.334;6.744;2022-07-15T00:02:03;102102.72;;;14.77;85.12
57656;BME280;43482;53.334;6.744;2022-07-15T00:04:29;102123.31;;;14.93;84.86
57656;BME280;43482;53.334;6.744;2022-07-15T00:06:54;102103.19;;;14.90;84.21
57656;BME280;43482;53.334;6.744;2022-07-15T00:09:19;102112.69;;;14.93;83.71
57656;BME280;43482;53.334;6.744;2022-07-15T00:11:45;102113.53;;;14.93;84.12
57656;BME280;43482;53.334;6.744;2022-07-15T00:14:10;102095.25;;;14.80;84.15
57656;BME280;43482;53.334;6.744;2022-07-15T00:16:35;102112.16;;;14.89;83.79
57656;BME280;43482;53.334;6.744;2022-07-15T00:19:01;102110.03;;;14.93;84.29
57656;BME280;43482;53.334;6.744;2022-07-15T00:21:27;102110.19;;;14.91;84.53
57656;BME280;43482;53.334;6.744;2022-07-15T00:23:52;102050.19;;;14.51;84.80
57656;BME280;43482;53.334;6.744;2022-07-15T00:26:18;102111.88;;;14.92;84.23
57656;BME280;43482;53.334;6.744;2022-07-15T00:28:43;102110.03;;;14.93;84.99
57656;BME280;43482;53.334;6.744;2022-07-15T00:31:08;102103.75;;;14.94;84.22
57656;BME280;43482;53.334;6.744;2022-07-15T00:33:34;102089.94;;;14.80;83.75
57656;BME280;43482;53.334;6.744;2022-07-15T00:35:59;102094.53;;;14.88;83.04
57656;BME280;43482;53.334;6.744;2022-07-15T00:38:24;102080.00;;;14.82;83.48
57656;BME280;43482;53.334;6.744;2022-07-15T00:40:50;102092.00;;;14.87;82.75
57656;BME280;43482;53.334;6.744;2022-07-15T00:43:17;102100.00;;;14.87;83.48
57656;BME280;43482;53.334;6.744;2022-07-15T00:45:43;102099.47;;;14.83;83.33
57656;BME280;43482;53.334;6.744;2022-07-15T00:48:09;102104.53;;;14.76;82.91
57656;BME280;43482;53.334;6.744;2022-07-15T00:50:36;102092.91;;;14.77;82.40
57656;BME280;43482;53.334;6.744;2022-07-15T00:53:12;102090.69;;;14.73;82.41
57656;BME280;43482;53.334;6.744;2022-07-15T00:55:42;102088.75;;;14.65;81.88
57656;BME280;43482;53.334;6.744;2022-07-15T00:58:10;102094.38;;;14.62;81.90
57656;BME280;43482;53.334;6.744;2022-07-15T01:00:38;102103.91;;;14.55;82.30
57656;BME280;43482;53.334;6.744;2022-07-15T01:03:04;102093.84;;;14.49;82.44
57656;BME280;43482;53.334;6.744;2022-07-15T01:05:30;102093.84;;;14.49;82.16
57656;BME280;43482;53.334;6.744;2022-07-15T01:07:55;102094.22;;;14.54;82.82
57656;BME280;43482;53.334;6.744;2022-07-15T01:10:22;102104.16;;;14.52;82.90
57656;BME280;43482;53.334;6.744;2022-07-15T01:12:50;102084.09;;;14.39;82.89
57656;BME280;43482;53.334;6.744;2022-07-15T01:15:17;102095.81;;;14.47;82.70
57656;BME280;43482;53.334;6.744;2022-07-15T01:17:43;102089.09;;;14.43;82.70
57656;BME280;43482;53.334;6.744;2022-07-15T01:20:09;102092.06;;;14.39;82.14
57656;BME280;43482;53.334;6.744;2022-07-15T01:22:35;102090.09;;;14.32;82.73
57656;BME280;43482;53.334;6.744;2022-07-15T01:25:00;102096.69;;;14.28;82.16
57656;BME280;43482;53.334;6.744;2022-07-15T01:27:26;102092.50;;;14.25;81.58
57656;BME280;43482;53.334;6.744;2022-07-15T01:29:52;102071.88;;;14.09;81.05
57656;BME280;43482;53.334;6.744;2022-07-15T01:32:18;102097.28;;;14.12;81.34
57656;BME280;43482;53.334;6.744;2022-07-15T01:34:43;102076.47;;;13.97;80.66
57656;BME280;43482;53.334;6.744;2022-07-15T01:37:09;102097.84;;;14.06;80.24
57656;BME280;43482;53.334;6.744;2022-07-15T01:39:34;102100.63;;;14.04;80.66
57656;BME280;43482;53.334;6.744;2022-07-15T01:41:59;102093.41;;;13.96;80.42
57656;BME280;43482;53.334;6.744;2022-07-15T01:44:25;102094.38;;;13.95;80.12
57656;BME280;43482;53.334;6.744;2022-07-15T01:46:50;102101.78;;;14.02;80.36
57656;BME280;43482;53.334;6.744;2022-07-15T01:49:16;102109.31;;;13.96;80.59
57656;BME280;43482;53.334;6.744;2022-07-15T01:51:50;102107.38;;;13.89;79.98
57656;BME280;43482;53.334;6.744;2022-07-15T01:54:16;102108.09;;;13.81;80.74
57656;BME280;43482;53.334;6.744;2022-07-15T01:56:42;102103.75;;;13.70;81.11
57656;BME280;43482;53.334;6.744;2022-07-15T01:59:08;102103.31;;;13.65;81.68
57656;BME280;43482;53.334;6.744;2022-07-15T02:01:33;102093.97;;;13.51;81.75
57656;BME280;43482;53.334;6.744;2022-07-15T02:03:59;102102.06;;;13.50;81.18
57656;BME280;43482;53.334;6.744;2022-07-15T02:06:25;102114.06;;;13.54;82.63
57656;BME280;43482;53.334;6.744;2022-07-15T02:08:50;102108.06;;;13.52;82.11
57656;BME280;43482;53.334;6.744;2022-07-15T02:11:15;102110.16;;;13.48;81.89
57656;BME280;43482;53.334;6.744;2022-07-15T02:13:41;102110.44;;;13.45;82.76
57656;BME280;43482;53.334;6.744;2022-07-15T02:16:06;102109.47;;;13.46;83.06
57656;BME280;43482;53.334;6.744;2022-07-15T02:18:32;102118.25;;;13.37;83.68
57656;BME280;43482;53.334;6.744;2022-07-15T02:20:57;102096.28;;;13.25;83.41
57656;BME280;43482;53.334;6.744;2022-07-15T02:23:23;102113.50;;;13.31;84.61
57656;BME280;43482;53.334;6.744;2022-07-15T02:25:48;102105.94;;;13.26;84.81
57656;BME280;43482;53.334;6.744;2022-07-15T02:28:15;102107.28;;;13.21;84.61
57656;BME280;43482;53.334;6.744;2022-07-15T02:30:41;102095.16;;;13.18;84.31
57656;BME280;43482;53.334;6.744;2022-07-15T02:33:07;102106.75;;;13.27;84.27
57656;BME280;43482;53.334;6.744;2022-07-15T02:35:33;102110.84;;;13.31;84.20
57656;BME280;43482;53.334;6.744;2022-07-15T02:37:59;102105.00;;;13.37;83.98
57656;BME280;43482;53.334;6.744;2022-07-15T02:40:25;102113.38;;;13.42;82.13
57656;BME280;43482;53.334;6.744;2022-07-15T02:42:55;102112.66;;;13.50;83.13
57656;BME280;43482;53.334;6.744;2022-07-15T02:45:23;102111.28;;;13.55;81.85
57656;BME280;43482;53.334;6.744;2022-07-15T02:47:49;102114.09;;;13.64;82.40
57656;BME280;43482;53.334;6.744;2022-07-15T02:50:15;102105.84;;;13.67;82.70
57656;BME280;43482;53.334;6.744;2022-07-15T02:52:42;102107.66;;;13.66;83.10
57656;BME280;43482;53.334;6.744;2022-07-15T02:55:08;102109.31;;;13.67;82.91
57656;BME280;43482;53.334;6.744;2022-07-15T02:57:34;102107.66;;;13.66;82.84
57656;BME280;43482;53.334;6.744;2022-07-15T03:00:00;102109.03;;;13.61;83.50
57656;BME280;43482;53.334;6.744;2022-07-15T03:02:27;102105.00;;;13.56;83.58
57656;BME280;43482;53.334;6.744;2022-07-15T03:04:52;102108.22;;;13.50;83.92
57656;BME280;43482;53.334;6.744;2022-07-15T03:07:18;102109.19;;;13.40;84.28
57656;BME280;43482;53.334;6.744;2022-07-15T03:09:43;102107.34;;;13.30;85.43
57656;BME280;43482;53.334;6.744;2022-07-15T03:12:08;102108.56;;;13.26;85.80
57656;BME280;43482;53.334;6.744;2022-07-15T03:14:34;102107.44;;;13.19;85.02
57656;BME280;43482;53.334;6.744;2022-07-15T03:16:59;102114.97;;;13.14;85.27
57656;BME280;43482;53.334;6.744;2022-07-15T03:19:24;102113.13;;;13.14;86.02
57656;BME280;43482;53.334;6.744;2022-07-15T03:21:50;102106.72;;;13.07;85.91
57656;BME280;43482;53.334;6.744;2022-07-15T03:24:15;102122.91;;;13.14;86.56
57656;BME280;43482;53.334;6.744;2022-07-15T03:26:42;102118.88;;;13.20;86.63
57656;BME280;43482;53.334;6.744;2022-07-15T03:29:07;102117.38;;;13.27;87.14
57656;BME280;43482;53.334;6.744;2022-07-15T03:31:33;102124.81;;;13.33;85.93
57656;BME280;43482;53.334;6.744;2022-07-15T03:33:58;102127.16;;;13.36;86.30
57656;BME280;43482;53.334;6.744;2022-07-15T03:36:24;102125.94;;;13.40;86.50
57656;BME280;43482;53.334;6.744;2022-07-15T03:38:50;102133.59;;;13.43;86.14
57656;BME280;43482;53.334;6.744;2022-07-15T03:41:20;102129.56;;;13.49;85.05
57656;BME280;43482;53.334;6.744;2022-07-15T03:43:46;102113.78;;;13.47;85.80
57656;BME280;43482;53.334;6.744;2022-07-15T03:46:12;102126.91;;;13.58;85.58
57656;BME280;43482;53.334;6.744;2022-07-15T03:48:41;102121.59;;;13.58;85.22
57656;BME280;43482;53.334;6.744;2022-07-15T03:51:06;102132.25;;;13.68;84.47
57656;BME280;43482;53.334;6.744;2022-07-15T03:53:32;102131.69;;;13.74;86.03
57656;BME280;43482;53.334;6.744;2022-07-15T03:55:57;102125.81;;;13.71;87.15
57656;BME280;43482;53.334;6.744;2022-07-15T03:58:23;102148.16;;;13.78;86.73
57656;BME280;43482;53.334;6.744;2022-07-15T04:00:49;102148.59;;;13.83;87.54
57656;BME280;43482;53.334;6.744;2022-07-15T04:03:14;102142.72;;;13.79;91.22
57656;BME280;43482;53.334;6.744;2022-07-15T04:05:41;102138.66;;;13.75;92.79
57656;BME280;43482;53.334;6.744;2022-07-15T04:08:07;102140.19;;;13.78;91.93
57656;BME280;43482;53.334;6.744;2022-07-15T04:10:32;102138.53;;;13.77;93.86
57656;BME280;43482;53.334;6.744;2022-07-15T04:12:57;102137.81;;;13.85;94.11
57656;BME280;43482;53.334;6.744;2022-07-15T04:15:23;102156.13;;;13.97;94.09
57656;BME280;43482;53.334;6.744;2022-07-15T04:17:49;102153.19;;;14.01;93.76
57656;BME280;43482;53.334;6.744;2022-07-15T04:20:14;102154.59;;;13.95;93.91
57656;BME280;43482;53.334;6.744;2022-07-15T04:22:41;102149.53;;;13.82;94.95
57656;BME280;43482;53.334;6.744;2022-07-15T04:25:08;102156.81;;;13.80;95.56
57656;BME280;43482;53.334;6.744;2022-07-15T04:27:33;102156.09;;;13.58;96.49
57656;BME280;43482;53.334;6.744;2022-07-15T04:29:58;102151.19;;;13.54;97.74
57656;BME280;43482;53.334;6.744;2022-07-15T04:32:24;102154.00;;;13.52;96.90
57656;BME280;43482;53.334;6.744;2022-07-15T04:34:51;102162.38;;;13.57;97.25
57656;BME280;43482;53.334;6.744;2022-07-15T04:37:16;102169.34;;;13.49;98.36
57656;BME280;43482;53.334;6.744;2022-07-15T04:39:41;102165.72;;;13.50;97.57
57656;BME280;43482;53.334;6.744;2022-07-15T04:42:07;102169.06;;;13.52;97.39
57656;BME280;43482;53.334;6.744;2022-07-15T04:44:32;102170.63;;;13.54;97.00
57656;BME280;43482;53.334;6.744;2022-07-15T04:46:58;102160.28;;;13.42;97.70
57656;BME280;43482;53.334;6.744;2022-07-15T04:49:24;102176.88;;;13.53;96.94
57656;BME280;43482;53.334;6.744;2022-07-15T04:52:07;102186.13;;;13.59;96.05
57656;BME280;43482;53.334;6.744;2022-07-15T04:54:33;102177.47;;;13.67;93.90
57656;BME280;43482;53.334;6.744;2022-07-15T04:56:59;102155.69;;;13.63;93.04
57656;BME280;43482;53.334;6.744;2022-07-15T04:59:24;102181.56;;;13.81;92.84
57656;BME280;43482;53.334;6.744;2022-07-15T05:01:49;102191.88;;;13.93;92.53
57656;BME280;43482;53.334;6.744;2022-07-15T05:04:15;102184.19;;;14.00;92.85
57656;BME280;43482;53.334;6.744;2022-07-15T05:06:40;102179.44;;;14.04;93.10
57656;BME280;43482;53.334;6.744;2022-07-15T05:09:06;102181.94;;;14.15;93.05
57656;BME280;43482;53.334;6.744;2022-07-15T05:11:31;102188.09;;;14.25;92.49
57656;BME280;43482;53.334;6.744;2022-07-15T05:13:56;102182.94;;;14.33;91.93
57656;BME280;43482;53.334;6.744;2022-07-15T05:16:22;102189.03;;;14.44;91.94
57656;BME280;43482;53.334;6.744;2022-07-15T05:18:47;102188.94;;;14.55;92.47
57656;BME280;43482;53.334;6.744;2022-07-15T05:21:13;102184.66;;;14.81;91.28
57656;BME280;43482;53.334;6.744;2022-07-15T05:23:38;102175.59;;;15.02;91.03
57656;BME280;43482;53.334;6.744;2022-07-15T05:26:05;102185.88;;;15.25;89.94
57656;BME280;43482;53.334;6.744;2022-07-15T05:28:30;102195.03;;;15.40;88.96
57656;BME280;43482;53.334;6.744;2022-07-15T05:30:56;102185.38;;;15.57;86.55
57656;BME280;43482;53.334;6.744;2022-07-15T05:33:22;102187.94;;;15.76;85.60
57656;BME280;43482;53.334;6.744;2022-07-15T05:35:47;102184.75;;;16.09;85.26
57656;BME280;43482;53.334;6.744;2022-07-15T05:38:13;102178.69;;;16.42;83.41
57656;BME280;43482;53.334;6.744;2022-07-15T05:40:38;102169.44;;;16.81;82.53
57656;BME280;43482;53.334;6.744;2022-07-15T05:43:04;102168.63;;;17.23;81.98
57656;BME280;43482;53.334;6.744;2022-07-15T05:45:29;102168.69;;;17.39;78.52
57656;BME280;43482;53.334;6.744;2022-07-15T05:47:54;102189.53;;;17.44;79.41
57656;BME280;43482;53.334;6.744;2022-07-15T05:50:20;102191.00;;;17.30;78.57
57656;BME280;43482;53.334;6.744;2022-07-15T05:52:46;102178.41;;;17.06;78.07
57656;BME280;43482;53.334;6.744;2022-07-15T05:55:11;102192.41;;;17.08;77.28
57656;BME280;43482;53.334;6.744;2022-07-15T05:57:37;102195.03;;;17.00;76.98
57656;BME280;43482;53.334;6.744;2022-07-15T06:00:04;102191.50;;;16.91;78.56
57656;BME280;43482;53.334;6.744;2022-07-15T06:02:30;102201.13;;;16.84;78.09
57656;BME280;43482;53.334;6.744;2022-07-15T06:04:56;102211.94;;;16.82;78.00
57656;BME280;43482;53.334;6.744;2022-07-15T06:07:21;102201.06;;;16.76;77.05
57656;BME280;43482;53.334;6.744;2022-07-15T06:09:47;102212.97;;;16.81;76.72
57656;BME280;43482;53.334;6.744;2022-07-15T06:12:16;102217.97;;;16.84;77.15
57656;BME280;43482;53.334;6.744;2022-07-15T06:14:41;102210.97;;;16.83;76.04
57656;BME280;43482;53.334;6.744;2022-07-15T06:17:07;102203.19;;;16.72;75.73
57656;BME280;43482;53.334;6.744;2022-07-15T06:19:32;102218.69;;;16.69;75.98
57656;BME280;43482;53.334;6.744;2022-07-15T06:21:58;102224.63;;;16.62;76.87
57656;BME280;43482;53.334;6.744;2022-07-15T06:24:24;102232.78;;;16.61;77.04
57656;BME280;43482;53.334;6.744;2022-07-15T06:26:50;102243.94;;;16.38;81.11
57656;BME280;43482;53.334;6.744;2022-07-15T06:29:16;102241.69;;;16.08;84.10
57656;BME280;43482;53.334;6.744;2022-07-15T06:31:41;102223.63;;;15.83;85.93
57656;BME280;43482;53.334;6.744;2022-07-15T06:34:06;102239.69;;;15.92;86.47
57656;BME280;43482;53.334;6.744;2022-07-15T06:36:32;102216.41;;;15.76;86.48
57656;BME280;43482;53.334;6.744;2022-07-15T06:38:58;102236.25;;;15.99;87.52
57656;BME280;43482;53.334;6.744;2022-07-15T06:41:24;102236.63;;;16.04;87.63
57656;BME280;43482;53.334;6.744;2022-07-15T06:43:49;102231.53;;;16.11;87.24
57656;BME280;43482;53.334;6.744;2022-07-15T06:46:14;102220.56;;;16.32;87.03
57656;BME280;43482;53.334;6.744;2022-07-15T06:48:40;102224.31;;;16.83;85.61
57656;BME280;43482;53.334;6.744;2022-07-15T06:51:07;102225.88;;;17.87;83.11
57656;BME280;43482;53.334;6.744;2022-07-15T06:53:32;102235.75;;;19.25;78.20
57656;BME280;43482;53.334;6.744;2022-07-15T06:55:58;102227.94;;;20.32;72.47
57656;BME280;43482;53.334;6.744;2022-07-15T06:58:23;102233.03;;;20.42;72.67
57656;BME280;43482;53.334;6.744;2022-07-15T07:00:49;102226.06;;;20.70;70.84
57656;BME280;43482;53.334;6.744;2022-07-15T07:03:14;102232.69;;;20.45;70.65
57656;BME280;43482;53.334;6.744;2022-07-15T07:05:39;102228.97;;;20.08;71.21
57656;BME280;43482;53.334;6.744;2022-07-15T07:08:05;102224.25;;;19.16;73.72
57656;BME280;43482;53.334;6.744;2022-07-15T07:10:31;102234.63;;;19.19;75.17
57656;BME280;43482;53.334;6.744;2022-07-15T07:12:56;102233.19;;;18.92;73.97
57656;BME280;43482;53.334;6.744;2022-07-15T07:15:22;102229.22;;;18.80;75.12
57656;BME280;43482;53.334;6.744;2022-07-15T07:17:52;102227.06;;;18.67;75.34
57656;BME280;43482;53.334;6.744;2022-07-15T07:20:18;102213.03;;;18.48;77.57
57656;BME280;43482;53.334;6.744;2022-07-15T07:22:43;102214.03;;;18.47;77.98
57656;BME280;43482;53.334;6.744;2022-07-15T07:25:09;102231.41;;;18.35;77.26
57656;BME280;43482;53.334;6.744;2022-07-15T07:27:34;102215.72;;;18.24;76.71
57656;BME280;43482;53.334;6.744;2022-07-15T07:30:00;102211.22;;;18.08;78.74
57656;BME280;43482;53.334;6.744;2022-07-15T07:32:28;102207.03;;;18.14;79.18
57656;BME280;43482;53.334;6.744;2022-07-15T07:34:53;102188.69;;;18.27;79.20
57656;BME280;43482;53.334;6.744;2022-07-15T07:37:18;102212.03;;;18.41;77.76
57656;BME280;43482;53.334;6.744;2022-07-15T07:39:44;102220.38;;;18.46;77.18
57656;BME280;43482;53.334;6.744;2022-07-15T07:42:09;102213.50;;;18.68;77.08
57656;BME280;43482;53.334;6.744;2022-07-15T07:44:35;102220.38;;;18.79;76.97
57656;BME280;43482;53.334;6.744;2022-07-15T07:47:02;102218.19;;;18.83;75.89
57656;BME280;43482;53.334;6.744;2022-07-15T07:49:27;102217.19;;;18.67;75.98
57656;BME280;43482;53.334;6.744;2022-07-15T07:51:53;102218.00;;;18.76;76.82
57656;BME280;43482;53.334;6.744;2022-07-15T07:54:18;102221.09;;;19.13;75.65
57656;BME280;43482;53.334;6.744;2022-07-15T07:56:44;102222.69;;;19.69;75.50
57656;BME280;43482;53.334;6.744;2022-07-15T07:59:10;102211.56;;;20.04;72.31
57656;BME280;43482;53.334;6.744;2022-07-15T08:01:36;102210.16;;;20.31;71.46
57656;BME280;43482;53.334;6.744;2022-07-15T08:04:02;102215.00;;;20.88;69.97
57656;BME280;43482;53.334;6.744;2022-07-15T08:06:27;102215.34;;;21.30;68.35
57656;BME280;43482;53.334;6.744;2022-07-15T08:08:53;102202.34;;;21.48;68.11
57656;BME280;43482;53.334;6.744;2022-07-15T08:11:18;102212.72;;;22.16;64.84
57656;BME280;43482;53.334;6.744;2022-07-15T08:13:45;102215.50;;;22.79;65.26
57656;BME280;43482;53.334;6.744;2022-07-15T08:16:11;102215.47;;;23.69;58.36
57656;BME280;43482;53.334;6.744;2022-07-15T08:18:36;102218.84;;;23.91;56.45
57656;BME280;43482;53.334;6.744;2022-07-15T08:21:02;102218.03;;;23.97;55.66
57656;BME280;43482;53.334;6.744;2022-07-15T08:23:29;102212.03;;;24.61;54.50
57656;BME280;43482;53.334;6.744;2022-07-15T08:25:56;102214.97;;;25.25;52.98
57656;BME280;43482;53.334;6.744;2022-07-15T08:28:22;102229.75;;;25.61;53.43
57656;BME280;43482;53.334;6.744;2022-07-15T08:30:47;102227.22;;;25.21;51.86
57656;BME280;43482;53.334;6.744;2022-07-15T08:33:13;102220.66;;;24.90;53.20
57656;BME280;43482;53.334;6.744;2022-07-15T08:35:39;102228.84;;;24.50;54.01
57656;BME280;43482;53.334;6.744;2022-07-15T08:38:07;102224.47;;;24.22;54.50
57656;BME280;43482;53.334;6.744;2022-07-15T08:40:33;102223.84;;;24.34;55.55
57656;BME280;43482;53.334;6.744;2022-07-15T08:42:59;102225.09;;;24.18;56.34
57656;BME280;43482;53.334;6.744;2022-07-15T08:45:25;102225.09;;;24.18;55.34
57656;BME280;43482;53.334;6.744;2022-07-15T08:47:51;102228.63;;;24.38;56.29
57656;BME280;43482;53.334;6.744;2022-07-15T08:50:18;102211.41;;;25.63;53.50
57656;BME280;43482;53.334;6.744;2022-07-15T08:52:45;102212.97;;;25.84;53.12
57656;BME280;43482;53.334;6.744;2022-07-15T08:55:12;102226.69;;;25.82;53.70
57656;BME280;43482;53.334;6.744;2022-07-15T08:57:38;102218.50;;;25.64;53.14
57656;BME280;43482;53.334;6.744;2022-07-15T09:00:05;102214.84;;;25.45;52.80
57656;BME280;43482;53.334;6.744;2022-07-15T09:02:35;102217.53;;;25.83;54.26
57656;BME280;43482;53.334;6.744;2022-07-15T09:07:53;102223.84;;;27.75;50.00
57656;BME280;43482;53.334;6.744;2022-07-15T09:10:20;102219.31;;;27.27;48.32
57656;BME280;43482;53.334;6.744;2022-07-15T09:12:51;102222.38;;;26.32;49.49
57656;BME280;43482;53.334;6.744;2022-07-15T09:15:34;102212.72;;;25.54;49.97
57656;BME280;43482;53.334;6.744;2022-07-15T09:18:12;102212.22;;;25.70;50.80
57656;BME280;43482;53.334;6.744;2022-07-15T09:20:39;102215.56;;;25.27;50.46
57656;BME280;43482;53.334;6.744;2022-07-15T09:23:05;102207.22;;;25.35;50.54
57656;BME280;43482;53.334;6.744;2022-07-15T09:25:33;102210.38;;;25.19;51.52
57656;BME280;43482;53.334;6.744;2022-07-15T09:28:03;102199.84;;;25.04;52.31
57656;BME280;43482;53.334;6.744;2022-07-15T09:30:32;102216.38;;;24.16;52.23
57656;BME280;43482;53.334;6.744;2022-07-15T09:33:24;102211.00;;;24.09;54.34
57656;BME280;43482;53.334;6.744;2022-07-15T09:36:14;102212.63;;;24.17;54.16
57656;BME280;43482;53.334;6.744;2022-07-15T09:41:29;102214.31;;;24.51;55.01
57656;BME280;43482;53.334;6.744;2022-07-15T09:44:08;102210.09;;;24.82;53.34
57656;BME280;43482;53.334;6.744;2022-07-15T09:46:48;102215.13;;;24.72;54.26
57656;BME280;43482;53.334;6.744;2022-07-15T09:49:34;102225.59;;;23.60;55.37
57656;BME280;43482;53.334;6.744;2022-07-15T09:52:04;102217.34;;;23.07;57.40
57656;BME280;43482;53.334;6.744;2022-07-15T09:54:38;102216.44;;;22.99;57.75
57656;BME280;43482;53.334;6.744;2022-07-15T09:57:11;102220.25;;;23.12;57.60
57656;BME280;43482;53.334;6.744;2022-07-15T09:59:39;102214.22;;;23.71;56.72
57656;BME280;43482;53.334;6.744;2022-07-15T10:02:05;102201.34;;;24.87;54.41
57656;BME280;43482;53.334;6.744;2022-07-15T10:04:30;102209.06;;;25.41;53.86
57656;BME280;43482;53.334;6.744;2022-07-15T10:06:58;102206.69;;;25.20;53.09
57656;BME280;43482;53.334;6.744;2022-07-15T10:09:30;102208.72;;;25.18;53.47
57656;BME280;43482;53.334;6.744;2022-07-15T10:12:02;102199.69;;;24.92;53.93
57656;BME280;43482;53.334;6.744;2022-07-15T10:22:56;102214.28;;;23.78;54.86
57656;BME280;43482;53.334;6.744;2022-07-15T10:28:17;102209.03;;;23.63;54.81
57656;BME280;43482;53.334;6.744;2022-07-15T10:30:45;102193.28;;;23.73;54.73
57656;BME280;43482;53.334;6.744;2022-07-15T10:33:15;102202.25;;;23.80;54.63
57656;BME280;43482;53.334;6.744;2022-07-15T10:35:48;102203.91;;;23.95;53.20
57656;BME280;43482;53.334;6.744;2022-07-15T10:41:08;102196.88;;;24.07;53.10
57656;BME280;43482;53.334;6.744;2022-07-15T10:48:43;102199.31;;;23.75;53.80
57656;BME280;43482;53.334;6.744;2022-07-15T10:51:09;102185.59;;;23.57;54.14
57656;BME280;43482;53.334;6.744;2022-07-15T10:53:46;102197.78;;;23.39;54.58
57656;BME280;43482;53.334;6.744;2022-07-15T10:56:49;102201.72;;;22.95;54.85
57656;BME280;43482;53.334;6.744;2022-07-15T10:59:20;102199.91;;;23.03;56.92
57656;BME280;43482;53.334;6.744;2022-07-15T11:02:23;102185.06;;;23.13;56.70
57656;BME280;43482;53.334;6.744;2022-07-15T11:04:42;102196.13;;;22.97;56.54
57656;BME280;43482;53.334;6.744;2022-07-15T11:12:24;102180.13;;;23.24;56.67
57656;BME280;43482;53.334;6.744;2022-07-15T11:15:16;102192.56;;;23.31;55.24
57656;BME280;43482;53.334;6.744;2022-07-15T11:17:46;102187.19;;;23.31;54.75
57656;BME280;43482;53.334;6.744;2022-07-15T11:20:14;102185.06;;;23.20;55.43
57656;BME280;43482;53.334;6.744;2022-07-15T11:22:50;102190.66;;;22.84;56.34
57656;BME280;43482;53.334;6.744;2022-07-15T11:25:37;102184.00;;;22.79;56.78
57656;BME280;43482;53.334;6.744;2022-07-15T11:28:11;102180.53;;;22.51;57.36
57656;BME280;43482;53.334;6.744;2022-07-15T11:33:13;102179.63;;;22.37;58.04
57656;BME280;43482;53.334;6.744;2022-07-15T11:35:48;102167.59;;;22.11;58.36
57656;BME280;43482;53.334;6.744;2022-07-15T11:38:15;102187.19;;;22.27;58.39
57656;BME280;43482;53.334;6.744;2022-07-15T11:40:48;102186.94;;;22.22;58.98
57656;BME280;43482;53.334;6.744;2022-07-15T11:43:33;102189.31;;;21.88;60.11
57656;BME280;43482;53.334;6.744;2022-07-15T11:46:17;102193.56;;;21.76;59.93
57656;BME280;43482;53.334;6.744;2022-07-15T11:48:43;102204.22;;;21.69;63.70
57656;BME280;43482;53.334;6.744;2022-07-15T11:51:10;102195.09;;;21.12;67.93
57656;BME280;43482;53.334;6.744;2022-07-15T11:53:38;102209.88;;;20.64;69.44
57656;BME280;43482;53.334;6.744;2022-07-15T11:56:04;102209.94;;;20.18;72.57
57656;BME280;43482;53.334;6.744;2022-07-15T11:58:32;102215.13;;;19.96;73.17
57656;BME280;43482;53.334;6.744;2022-07-15T12:01:06;102203.53;;;19.81;73.95
57656;BME280;43482;53.334;6.744;2022-07-15T12:03:34;102199.50;;;19.85;73.94
57656;BME280;43482;53.334;6.744;2022-07-15T12:06:12;102192.59;;;19.90;73.14
57656;BME280;43482;53.334;6.744;2022-07-15T12:08:49;102185.31;;;19.99;75.46
57656;BME280;43482;53.334;6.744;2022-07-15T12:11:20;102188.72;;;19.93;75.20
57656;BME280;43482;53.334;6.744;2022-07-15T12:14:02;102192.81;;;20.04;75.44
57656;BME280;43482;53.334;6.744;2022-07-15T12:16:35;102184.81;;;20.19;74.65
57656;BME280;43482;53.334;6.744;2022-07-15T12:19:06;102181.41;;;20.25;74.85
57656;BME280;43482;53.334;6.744;2022-07-15T12:21:33;102186.63;;;20.41;74.57
57656;BME280;43482;53.334;6.744;2022-07-15T12:24:18;102184.84;;;20.48;75.13
57656;BME280;43482;53.334;6.744;2022-07-15T12:29:20;102171.75;;;20.53;74.84
57656;BME280;43482;53.334;6.744;2022-07-15T12:32:10;102180.41;;;20.55;73.88
57656;BME280;43482;53.334;6.744;2022-07-15T12:37:14;102174.34;;;20.62;74.92
57656;BME280;43482;53.334;6.744;2022-07-15T12:40:03;102170.47;;;20.64;74.84
57656;BME280;43482;53.334;6.744;2022-07-15T12:42:31;102174.63;;;20.52;76.39
57656;BME280;43482;53.334;6.744;2022-07-15T12:45:17;102173.91;;;20.58;74.96
57656;BME280;43482;53.334;6.744;2022-07-15T12:48:16;102174.75;;;20.73;74.55
57656;BME280;43482;53.334;6.744;2022-07-15T12:53:15;102172.88;;;21.40;73.25
57656;BME280;43482;53.334;6.744;2022-07-15T12:55:43;102152.63;;;21.37;70.65
57656;BME280;43482;53.334;6.744;2022-07-15T12:58:12;102169.34;;;21.54;70.05
57656;BME280;43482;53.334;6.744;2022-07-15T13:00:39;102183.38;;;21.50;70.34
57656;BME280;43482;53.334;6.744;2022-07-15T13:03:17;102175.41;;;21.42;70.75
57656;BME280;43482;53.334;6.744;2022-07-15T13:05:46;102179.81;;;21.13;71.35
57656;BME280;43482;53.334;6.744;2022-07-15T13:08:14;102181.28;;;20.86;72.38
57656;BME280;43482;53.334;6.744;2022-07-15T13:10:42;102177.84;;;20.47;72.20
57656;BME280;43482;53.334;6.744;2022-07-15T13:13:09;102171.19;;;20.43;72.67
57656;BME280;43482;53.334;6.744;2022-07-15T13:15:35;102171.63;;;20.47;73.04
57656;BME280;43482;53.334;6.744;2022-07-15T13:18:00;102179.59;;;20.55;73.91
57656;BME280;43482;53.334;6.744;2022-07-15T13:20:26;102182.00;;;20.50;72.91
57656;BME280;43482;53.334;6.744;2022-07-15T13:22:52;102180.38;;;20.64;71.93
57656;BME280;43482;53.334;6.744;2022-07-15T13:25:18;102181.41;;;20.63;71.59
57656;BME280;43482;53.334;6.744;2022-07-15T13:27:44;102185.47;;;20.59;71.04
57656;BME280;43482;53.334;6.744;2022-07-15T13:30:11;102186.97;;;20.76;71.62
57656;BME280;43482;53.334;6.744;2022-07-15T13:32:37;102187.44;;;20.80;69.04
57656;BME280;43482;53.334;6.744;2022-07-15T13:35:03;102184.34;;;20.98;67.89